Time;durP1;ratioP1;P1;durP2;ratioP2;P2;SDS_P1;SDS_P2;PMS_P1;PMS_P2;Temp;Humidity;BMP_temperature;BMP_pressure;BME280_temperature;BME280_humidity;BME280_pressure;Samples;Min_cycle;Max_cycle;Signal;HPM_P1;HPM_P2
2022/12/11 00:01:35;;;;;;;91.32;27.10;;;-1.30;99.90;;;;;;4983642;28;20049;-57
2022/12/11 00:04:01;;;;;;;85.20;26.27;;;-1.60;99.90;;;;;;4981732;28;20486;-59
2022/12/11 00:06:26;;;;;;;74.88;25.23;;;-0.20;99.90;;;;;;4972570;28;20098;-57
2022/12/11 00:08:53;;;;;;;78.78;26.42;;;-0.60;99.90;;;;;;4963438;28;20065;-58
2022/12/11 00:11:20;;;;;;;66.70;23.77;;;-1.60;99.90;;;;;;4965209;28;20043;-60
2022/12/11 00:13:46;;;;;;;60.45;21.88;;;-1.40;99.90;;;;;;4963821;28;20181;-58
2022/12/11 00:16:12;;;;;;;45.65;17.40;;;-1.40;99.90;;;;;;4961671;28;20130;-59
2022/12/11 00:18:37;;;;;;;53.50;19.73;;;-1.00;99.90;;;;;;4964018;28;20050;-58
2022/12/11 00:21:05;;;;;;;34.83;15.38;;;-1.50;99.90;;;;;;4963815;28;20043;-58
2022/12/11 00:23:34;;;;;;;38.33;14.98;;;-1.50;99.90;;;;;;4963531;28;20050;-58
2022/12/11 00:25:59;;;;;;;59.92;21.67;;;-1.50;99.90;;;;;;4964744;28;20043;-56
2022/12/11 00:28:25;;;;;;;53.65;17.73;;;-1.80;99.90;;;;;;4964034;28;20069;-57
2022/12/11 00:30:51;;;;;;;44.10;16.17;;;-0.40;99.90;;;;;;4964534;28;20042;-57
2022/12/11 00:33:16;;;;;;;49.78;19.77;;;-1.70;99.90;;;;;;4962268;28;20122;-58
2022/12/11 00:35:45;;;;;;;73.97;22.98;;;-1.20;99.90;;;;;;4965382;28;20422;-56
2022/12/11 00:38:16;;;;;;;69.10;22.15;;;-1.70;99.90;;;;;;4962885;28;20078;-58
2022/12/11 00:40:42;;;;;;;62.25;23.05;;;-1.80;99.90;;;;;;4963806;28;20045;-57
2022/12/11 00:43:08;;;;;;;68.85;24.33;;;-1.30;99.90;;;;;;4964469;28;20053;-57
2022/12/11 00:45:39;;;;;;;65.70;24.08;;;-1.90;99.90;;;;;;4962948;28;20054;-58
2022/12/11 00:48:05;;;;;;;61.33;22.85;;;-2.00;99.90;;;;;;4963997;28;20047;-59
2022/12/11 00:50:32;;;;;;;52.70;18.60;;;-1.90;99.90;;;;;;4963568;28;20057;-57
2022/12/11 00:52:57;;;;;;;67.90;22.90;;;-1.70;99.90;;;;;;4963575;28;20449;-57
2022/12/11 00:55:24;;;;;;;67.05;23.48;;;-1.50;99.90;;;;;;4964367;28;20046;-59
2022/12/11 00:57:53;;;;;;;71.63;24.17;;;-1.60;99.90;;;;;;4963856;28;20046;-58
2022/12/11 01:00:19;;;;;;;57.92;21.92;;;-1.90;99.90;;;;;;4964589;28;20039;-57
2022/12/11 01:02:45;;;;;;;74.28;24.40;;;-1.90;99.90;;;;;;4963525;28;20399;-57
2022/12/11 01:05:10;;;;;;;42.38;15.95;;;-1.70;99.90;;;;;;4972618;28;20054;-59
2022/12/11 01:07:36;;;;;;;60.30;22.83;;;-0.40;99.90;;;;;;4965979;28;20525;-57
2022/12/11 01:12:47;;;;;;;54.38;22.08;;;-1.70;99.90;;;;;;4964537;28;20089;-56
2022/12/11 01:15:13;;;;;;;56.85;22.00;;;-1.60;99.90;;;;;;4963443;28;20597;-56
2022/12/11 01:17:38;;;;;;;65.88;24.25;;;-1.60;99.90;;;;;;4963414;28;20129;-57
2022/12/11 01:20:05;;;;;;;65.57;25.83;;;-1.50;99.90;;;;;;4963814;28;20046;-58
2022/12/11 01:22:31;;;;;;;63.72;23.33;;;-1.60;99.90;;;;;;4963393;28;20093;-58
2022/12/11 01:24:56;;;;;;;58.85;23.05;;;-1.20;99.90;;;;;;4964341;28;20427;-57
2022/12/11 01:27:22;;;;;;;61.97;23.40;;;-1.10;99.90;;;;;;4963815;28;20051;-58
2022/12/11 01:29:48;;;;;;;58.50;21.35;;;-1.30;99.90;;;;;;4964287;28;20113;-59
2022/12/11 01:32:14;;;;;;;56.55;22.08;;;-1.70;99.90;;;;;;4962175;28;20110;-57
2022/12/11 01:34:40;;;;;;;58.13;21.65;;;-1.60;99.90;;;;;;4963462;28;20039;-58
2022/12/11 01:37:06;;;;;;;57.67;21.58;;;-1.50;99.90;;;;;;4963694;28;20046;-58
2022/12/11 01:39:31;;;;;;;53.83;20.13;;;-1.70;99.90;;;;;;4963004;28;20053;-58
2022/12/11 01:41:59;;;;;;;60.78;22.90;;;-0.90;99.90;;;;;;4962568;28;20043;-57
2022/12/11 01:44:25;;;;;;;54.65;20.83;;;-1.50;99.90;;;;;;4963808;28;20115;-58
2022/12/11 01:46:52;;;;;;;55.50;21.27;;;-1.30;99.90;;;;;;4963033;28;20417;-57
2022/12/11 01:49:21;;;;;;;56.67;22.27;;;-1.60;99.90;;;;;;4963540;28;20054;-59
2022/12/11 01:52:02;;;;;;;54.92;21.52;;;-1.10;99.90;;;;;;4963629;28;20046;-57
2022/12/11 01:54:29;;;;;;;56.72;22.52;;;-1.50;99.90;;;;;;4963499;28;20039;-59
2022/12/11 01:56:59;;;;;;;58.97;21.80;;;-1.10;99.90;;;;;;4963138;28;20854;-59
2022/12/11 01:59:29;;;;;;;52.75;20.02;;;-0.50;99.90;;;;;;4963354;28;20062;-58
2022/12/11 02:02:18;;;;;;;49.22;18.98;;;-0.90;99.90;;;;;;4962874;28;20528;-58
2022/12/11 02:04:45;;;;;;;57.95;22.10;;;-2.60;99.90;;;;;;4967832;28;20505;-57
2022/12/11 02:07:11;;;;;;;50.22;20.80;;;-0.80;99.90;;;;;;4968889;28;20136;-58
2022/12/11 02:09:40;;;;;;;55.95;20.40;;;-1.30;99.90;;;;;;4963699;28;20046;-58
2022/12/11 02:12:10;;;;;;;50.97;20.30;;;-1.50;99.90;;;;;;4963033;28;20486;-58
2022/12/11 02:14:54;;;;;;;53.88;19.98;;;-1.20;99.90;;;;;;4963057;28;20082;-57
2022/12/11 02:17:34;;;;;;;51.65;19.10;;;-1.40;99.90;;;;;;4976492;28;20450;-58
2022/12/11 02:23:12;;;;;;;54.97;21.25;;;-1.20;99.90;;;;;;4980882;23;20058;-57
2022/12/11 02:25:57;;;;;;;51.50;20.70;;;-1.20;99.90;;;;;;4982424;28;20046;-57
2022/12/11 02:28:31;;;;;;;52.05;18.27;;;-1.10;99.90;;;;;;4980626;28;20058;-58
2022/12/11 02:31:11;;;;;;;47.45;18.13;;;-1.40;99.90;;;;;;4981231;28;20428;-59
2022/12/11 02:33:44;;;;;;;50.22;20.05;;;-1.30;99.90;;;;;;4982375;28;20093;-58
2022/12/11 02:36:11;;;;;;;52.38;19.95;;;-1.10;99.90;;;;;;4981631;28;20050;-58
2022/12/11 02:38:40;;;;;;;51.83;19.85;;;-1.40;99.90;;;;;;4982065;28;20046;-57
2022/12/11 02:41:08;;;;;;;53.95;20.27;;;-1.00;99.90;;;;;;4980743;28;20493;-58
2022/12/11 02:43:36;;;;;;;53.83;20.02;;;-1.00;99.90;;;;;;4982270;28;20068;-58
2022/12/11 02:46:05;;;;;;;50.22;19.40;;;-1.30;99.90;;;;;;4980682;28;20093;-58
2022/12/11 02:48:32;;;;;;;52.35;19.83;;;-1.00;99.90;;;;;;4981247;28;20512;-59
2022/12/11 02:50:59;;;;;;;48.85;19.25;;;-1.20;99.90;;;;;;4982324;28;20046;-59
2022/12/11 02:53:28;;;;;;;53.25;19.70;;;-0.90;99.90;;;;;;4981795;28;20050;-58
2022/12/11 02:56:02;;;;;;;51.83;19.13;;;-1.30;99.90;;;;;;4979432;28;20053;-57
2022/12/11 02:58:32;;;;;;;51.17;18.92;;;-0.90;99.90;;;;;;4982004;28;20049;-57
2022/12/11 03:00:57;;;;;;;50.45;18.67;;;-1.20;99.90;;;;;;4981784;28;20651;-57
2022/12/11 03:03:24;;;;;;;43.17;17.38;;;-0.50;99.90;;;;;;4984690;28;20117;-59
2022/12/11 03:05:50;;;;;;;46.15;16.67;;;-0.50;99.90;;;;;;4973523;28;20134;-58
2022/12/11 03:08:17;;;;;;;42.05;15.93;;;-0.80;99.90;;;;;;4985333;28;20126;-57
2022/12/11 03:10:44;;;;;;;41.97;17.00;;;-1.00;99.90;;;;;;4984607;28;20049;-58
2022/12/11 03:13:19;;;;;;;46.38;18.67;;;-0.40;99.90;;;;;;4984480;28;20515;-59
2022/12/11 03:15:59;;;;;;;44.30;17.77;;;-0.90;99.90;;;;;;4984388;28;20042;-58
2022/12/11 03:18:50;;;;;;;48.97;18.73;;;-0.90;99.90;;;;;;4984975;28;20057;-57
2022/12/11 03:21:15;;;;;;;45.40;17.45;;;-0.90;99.90;;;;;;4983595;28;20670;-57
2022/12/11 03:23:48;;;;;;;48.75;18.92;;;-0.80;99.90;;;;;;4984747;28;20058;-58
2022/12/11 03:26:15;;;;;;;47.22;18.13;;;-0.70;99.90;;;;;;4984657;28;20097;-57
2022/12/11 03:28:47;;;;;;;55.50;19.08;;;-0.10;99.90;;;;;;4984574;28;20052;-58
2022/12/11 03:31:34;;;;;;;51.05;18.67;;;-0.70;99.90;;;;;;4983687;28;20060;-57
2022/12/11 03:34:08;;;;;;;49.08;19.25;;;-0.80;99.90;;;;;;4985005;28;20712;-58
2022/12/11 03:36:37;;;;;;;51.78;20.15;;;-0.40;99.90;;;;;;4984945;28;20128;-56
2022/12/11 03:39:10;;;;;;;55.20;19.33;;;-0.50;99.90;;;;;;4984787;28;20446;-59
2022/12/11 03:41:37;;;;;;;52.42;19.08;;;-1.10;99.90;;;;;;4984890;28;20147;-59
2022/12/11 03:44:04;;;;;;;47.80;19.83;;;-0.70;99.90;;;;;;4984786;28;20493;-59
2022/12/11 03:46:35;;;;;;;49.00;20.27;;;-0.70;99.90;;;;;;4982956;28;20061;-58
2022/12/11 03:49:06;;;;;;;48.92;20.00;;;-0.90;99.90;;;;;;4984465;28;20046;-57
2022/12/11 03:51:34;;;;;;;50.28;20.35;;;-0.40;99.90;;;;;;4983892;28;20037;-59
2022/12/11 03:54:00;;;;;;;57.80;22.42;;;-0.80;99.90;;;;;;4984621;28;20053;-58
2022/12/11 03:56:28;;;;;;;45.92;18.40;;;-0.90;99.90;;;;;;4984185;28;20053;-58
2022/12/11 03:58:54;;;;;;;54.28;22.13;;;-0.40;99.90;;;;;;4984386;28;20057;-58
2022/12/11 04:01:20;;;;;;;50.28;19.13;;;-0.80;99.90;;;;;;4982066;28;20050;-59
2022/12/11 04:03:46;;;;;;;48.20;20.85;;;-0.80;99.90;;;;;;4982926;28;20132;-59
2022/12/11 04:06:11;;;;;;;48.58;20.02;;;-0.70;99.90;;;;;;4974111;28;20517;-57
2022/12/11 04:08:37;;;;;;;53.28;20.20;;;-0.80;99.90;;;;;;4963961;28;20053;-59
2022/12/11 04:15:00;;;;;;;54.05;20.13;;;-0.60;99.90;;;;;;4963808;28;20063;-58
2022/12/11 04:16:33;;;;;;;41.10;16.23;;;-0.40;99.90;;;;;;4963084;28;20513;-58
2022/12/11 04:24:28;;;;;;;42.70;16.70;;;-0.60;99.90;;;;;;4964472;28;20409;-59
2022/12/11 04:26:53;;;;;;;43.10;18.17;;;-0.20;99.90;;;;;;4964415;28;20055;-59
2022/12/11 04:29:19;;;;;;;45.72;18.73;;;-0.20;99.90;;;;;;4963691;28;20050;-59
2022/12/11 04:31:45;;;;;;;36.97;15.02;;;-0.70;99.90;;;;;;4963776;28;20047;-58
2022/12/11 04:34:10;;;;;;;50.08;20.45;;;0.00;99.90;;;;;;4963767;28;20038;-58
2022/12/11 04:36:36;;;;;;;47.67;17.73;;;-0.90;99.90;;;;;;4963920;28;20050;-59
2022/12/11 04:39:04;;;;;;;52.10;20.95;;;-0.70;99.90;;;;;;4963864;28;20129;-57
2022/12/11 04:41:30;;;;;;;54.15;21.00;;;-0.10;99.90;;;;;;4964607;28;20513;-57
2022/12/11 04:43:55;;;;;;;55.58;21.65;;;-0.20;99.90;;;;;;4963284;28;20093;-58
2022/12/11 04:46:22;;;;;;;47.65;18.73;;;-0.60;99.90;;;;;;4963590;28;20086;-58
2022/12/11 04:48:49;;;;;;;55.63;21.10;;;-0.80;99.90;;;;;;4963778;28;20206;-57
2022/12/11 04:51:15;;;;;;;56.75;20.42;;;-0.60;99.90;;;;;;4963681;28;20070;-58
2022/12/11 04:53:41;;;;;;;52.65;19.92;;;-0.70;99.90;;;;;;4963384;28;20046;-58
2022/12/11 04:56:09;;;;;;;58.58;21.63;;;-0.80;99.90;;;;;;4963358;28;20046;-58
2022/12/11 04:58:35;;;;;;;51.13;19.67;;;-0.50;99.90;;;;;;4963648;28;20555;-57
2022/12/11 05:01:07;;;;;;;44.85;17.75;;;-0.50;99.90;;;;;;4963605;28;20047;-58
2022/12/11 05:03:33;;;;;;;46.28;18.13;;;-0.60;99.90;;;;;;4964716;28;20051;-60
2022/12/11 05:05:59;;;;;;;50.30;20.50;;;-0.40;99.90;;;;;;4973581;28;20757;-59
2022/12/11 05:08:25;;;;;;;48.90;19.67;;;-0.60;99.90;;;;;;4978457;28;20085;-58
2022/12/11 05:10:58;;;;;;;46.65;18.80;;;-0.60;99.90;;;;;;4963003;28;20047;-59
2022/12/11 05:13:25;;;;;;;52.65;20.15;;;-0.70;99.90;;;;;;4963152;28;20441;-58
2022/12/11 05:15:51;;;;;;;44.92;18.98;;;-0.40;99.90;;;;;;4977073;28;20501;-58
2022/12/11 05:18:17;;;;;;;49.35;18.92;;;-0.50;99.90;;;;;;4964346;28;20043;-58
2022/12/11 05:20:42;;;;;;;46.08;19.00;;;-0.30;99.90;;;;;;4963680;28;20137;-57
2022/12/11 05:23:08;;;;;;;52.85;19.40;;;-0.60;99.90;;;;;;4978117;28;20082;-58
2022/12/11 05:25:34;;;;;;;44.95;18.35;;;-0.40;99.90;;;;;;4963825;28;20055;-58
2022/12/11 05:27:59;;;;;;;52.65;21.08;;;0.00;99.90;;;;;;4963148;28;20540;-58
2022/12/11 05:30:25;;;;;;;49.95;20.55;;;-0.40;99.90;;;;;;4961219;28;20051;-58
2022/12/11 05:32:51;;;;;;;49.92;19.50;;;-0.40;99.90;;;;;;4978048;28;20042;-59
2022/12/11 05:35:17;;;;;;;47.80;18.33;;;-0.60;99.90;;;;;;4962974;28;20525;-57
2022/12/11 05:37:43;;;;;;;53.75;19.58;;;0.10;99.90;;;;;;4962698;28;20401;-58
2022/12/11 05:40:11;;;;;;;57.58;21.73;;;-0.10;99.90;;;;;;4978125;28;20498;-59
2022/12/11 05:42:37;;;;;;;55.83;20.63;;;-0.40;99.90;;;;;;4964118;28;20093;-59
2022/12/11 05:45:03;;;;;;;57.92;22.10;;;-0.70;99.90;;;;;;4963510;28;20515;-58
2022/12/11 05:47:30;;;;;;;57.67;21.17;;;-0.60;99.90;;;;;;4962400;28;20054;-58
2022/12/11 05:49:56;;;;;;;55.90;21.52;;;-0.10;99.90;;;;;;4962244;28;20544;-59
2022/12/11 05:52:22;;;;;;;44.75;19.98;;;-0.60;99.90;;;;;;4964299;28;20185;-57
2022/12/11 05:54:49;;;;;;;54.67;20.80;;;-0.40;99.90;;;;;;4963475;28;20070;-57
2022/12/11 05:57:15;;;;;;;49.70;20.35;;;0.10;99.90;;;;;;4962474;28;20054;-58
2022/12/11 05:59:41;;;;;;;55.83;21.40;;;0.00;99.90;;;;;;4963495;28;20465;-59
2022/12/11 06:02:06;;;;;;;54.50;20.58;;;-0.10;99.90;;;;;;4964818;28;20058;-58
2022/12/11 06:04:32;;;;;;;54.80;21.35;;;0.40;99.90;;;;;;4975742;28;20676;-58
2022/12/11 06:06:58;;;;;;;54.28;22.38;;;-0.40;99.90;;;;;;4970457;28;20049;-58
2022/12/11 06:09:24;;;;;;;50.25;21.05;;;-0.60;99.90;;;;;;4963698;28;20419;-59
2022/12/11 06:11:49;;;;;;;53.53;22.52;;;-0.30;99.90;;;;;;4963041;28;20057;-58
2022/12/11 06:14:15;;;;;;;52.50;20.48;;;-0.30;99.90;;;;;;4963808;28;20057;-58
2022/12/11 06:16:41;;;;;;;57.45;22.80;;;-0.30;99.90;;;;;;4961773;28;20035;-59
2022/12/11 06:19:11;;;;;;;59.67;22.20;;;-0.60;99.90;;;;;;4963797;28;20039;-58
2022/12/11 06:21:37;;;;;;;55.80;23.17;;;-0.40;99.90;;;;;;4963106;28;20091;-57
2022/12/11 06:24:04;;;;;;;55.90;21.83;;;0.40;99.90;;;;;;4962574;28;20082;-58
2022/12/11 06:26:30;;;;;;;49.58;19.08;;;-0.50;99.90;;;;;;4962328;28;20043;-58
2022/12/11 06:28:56;;;;;;;40.67;16.42;;;-0.20;99.90;;;;;;4963000;28;20421;-58
2022/12/11 06:31:22;;;;;;;42.03;17.25;;;-0.30;99.90;;;;;;4960978;28;20049;-58
2022/12/11 06:33:48;;;;;;;47.75;18.65;;;-0.40;99.90;;;;;;4962770;28;20046;-58
2022/12/11 06:36:19;;;;;;;42.13;15.98;;;0.70;99.90;;;;;;4964212;28;20039;-57
2022/12/11 06:38:46;;;;;;;50.92;20.58;;;-0.20;99.90;;;;;;4967299;28;20058;-58
2022/12/11 06:41:13;;;;;;;52.38;21.75;;;-0.20;99.90;;;;;;4966546;28;20038;-60
2022/12/11 06:43:40;;;;;;;51.55;20.75;;;-0.30;99.90;;;;;;4965545;28;20057;-58
2022/12/11 06:46:08;;;;;;;59.40;21.00;;;-0.50;99.90;;;;;;4964988;28;20114;-58
2022/12/11 06:48:34;;;;;;;46.40;18.98;;;0.80;99.90;;;;;;4966054;28;20169;-57
2022/12/11 06:51:05;;;;;;;44.50;17.45;;;0.10;99.90;;;;;;4965072;28;20075;-59
2022/12/11 06:53:31;;;;;;;50.22;19.90;;;-0.60;99.90;;;;;;4965253;28;20050;-57
2022/12/11 06:56:02;;;;;;;49.70;19.63;;;-0.50;99.90;;;;;;4965736;28;20179;-58
2022/12/11 06:58:27;;;;;;;48.42;19.80;;;-0.60;99.90;;;;;;4965346;28;20043;-57
2022/12/11 07:00:53;;;;;;;53.05;21.00;;;-0.50;99.90;;;;;;4964680;28;20054;-58
2022/12/11 07:03:18;;;;;;;47.70;21.05;;;-0.40;99.90;;;;;;4965151;28;20043;-58
2022/12/11 07:05:44;;;;;;;54.28;20.77;;;-0.50;99.90;;;;;;4977275;28;20038;-57
2022/12/11 07:08:10;;;;;;;50.83;20.30;;;-0.10;99.90;;;;;;4980911;28;20055;-58
2022/12/11 07:10:35;;;;;;;36.95;15.15;;;-0.30;99.90;;;;;;4965876;28;20050;-58
2022/12/11 07:13:01;;;;;;;46.30;20.73;;;-0.40;99.90;;;;;;4981497;28;20752;-59
2022/12/11 07:15:27;;;;;;;44.63;19.38;;;-0.10;99.90;;;;;;4965508;28;20043;-58
2022/12/11 07:17:52;;;;;;;43.83;18.50;;;-0.50;99.90;;;;;;4965420;28;20050;-59
2022/12/11 07:20:18;;;;;;;47.65;18.75;;;0.90;99.90;;;;;;4966399;28;20144;-58
2022/12/11 07:22:44;;;;;;;51.58;20.92;;;-0.40;99.90;;;;;;4966418;28;20498;-60
2022/12/11 07:25:10;;;;;;;38.42;16.17;;;0.00;99.90;;;;;;4966320;28;20041;-57
2022/12/11 07:27:35;;;;;;;49.90;21.67;;;-0.20;99.90;;;;;;4965179;28;20053;-58
2022/12/11 07:30:01;;;;;;;40.97;18.60;;;-0.40;99.90;;;;;;4965656;28;20666;-60
2022/12/11 07:32:27;;;;;;;45.88;19.25;;;-0.40;99.90;;;;;;4965997;28;20047;-58
2022/12/11 07:34:53;;;;;;;46.97;20.15;;;-0.40;99.90;;;;;;4965664;28;20137;-59
2022/12/11 07:37:19;;;;;;;34.65;14.27;;;-0.10;99.90;;;;;;4965392;28;20074;-58
2022/12/11 07:39:44;;;;;;;41.70;17.00;;;-0.40;99.90;;;;;;4966217;28;20057;-58
2022/12/11 07:42:10;;;;;;;44.10;18.60;;;-0.50;99.90;;;;;;4965633;28;20035;-59
2022/12/11 07:44:35;;;;;;;43.30;17.38;;;-0.50;99.90;;;;;;4965979;28;20437;-59
2022/12/11 07:47:01;;;;;;;42.65;18.92;;;-0.20;99.90;;;;;;4962914;28;20398;-57
2022/12/11 07:49:27;;;;;;;46.13;18.27;;;-0.20;99.90;;;;;;4965077;28;20135;-58
2022/12/11 07:51:52;;;;;;;42.05;18.10;;;0.40;99.90;;;;;;4965808;28;20038;-59
2022/12/11 07:54:19;;;;;;;47.63;19.55;;;-0.60;99.90;;;;;;4965197;28;20047;-59
2022/12/11 07:56:47;;;;;;;44.90;19.35;;;-0.10;99.90;;;;;;4965761;28;20046;-58
2022/12/11 07:59:13;;;;;;;46.88;21.17;;;-0.40;99.90;;;;;;4980439;28;20053;-59
2022/12/11 08:01:40;;;;;;;48.42;20.13;;;-0.50;99.90;;;;;;4964910;28;20384;-58
2022/12/11 08:04:08;;;;;;;51.05;20.90;;;-0.30;99.90;;;;;;4968100;28;20050;-57
2022/12/11 08:06:36;;;;;;;53.92;21.83;;;0.30;99.90;;;;;;4973478;28;20038;-58
2022/12/11 08:09:05;;;;;;;47.92;20.38;;;0.20;99.90;;;;;;4965438;28;20110;-58
2022/12/11 08:11:30;;;;;;;35.20;14.63;;;0.10;99.90;;;;;;4964169;28;20042;-58
2022/12/11 08:14:01;;;;;;;48.20;19.90;;;-0.30;99.90;;;;;;4965584;28;20039;-58
2022/12/11 08:16:27;;;;;;;48.38;19.80;;;-0.20;99.90;;;;;;4963238;28;20061;-57
2022/12/11 08:18:53;;;;;;;38.58;16.27;;;-0.20;99.90;;;;;;4963257;28;20050;-57
2022/12/11 08:21:24;;;;;;;47.67;20.70;;;-0.30;99.90;;;;;;4964510;28;20065;-59
2022/12/11 08:23:51;;;;;;;47.20;20.58;;;-0.10;99.90;;;;;;4964966;28;20070;-57
2022/12/11 08:26:20;;;;;;;39.85;17.63;;;-0.20;99.90;;;;;;4965817;28;20046;-59
2022/12/11 08:28:46;;;;;;;39.17;17.85;;;-0.50;99.90;;;;;;4963424;28;20055;-58
2022/12/11 08:31:13;;;;;;;45.55;19.17;;;0.10;99.90;;;;;;4964085;28;20046;-56
2022/12/11 08:33:40;;;;;;;46.67;19.52;;;-0.10;99.90;;;;;;4963151;28;20050;-57
2022/12/11 08:36:09;;;;;;;44.45;18.40;;;-0.10;99.90;;;;;;4964748;28;20441;-57
2022/12/11 08:38:36;;;;;;;46.60;18.88;;;-0.30;99.90;;;;;;4964769;28;20126;-57
2022/12/11 08:41:15;;;;;;;50.22;19.52;;;-0.30;99.90;;;;;;4963368;28;20047;-57
2022/12/11 08:43:41;;;;;;;50.35;20.10;;;-0.30;99.90;;;;;;4979508;28;20935;-59
2022/12/11 08:46:08;;;;;;;49.35;21.23;;;-0.40;99.90;;;;;;4964025;28;20043;-57
2022/12/11 08:48:35;;;;;;;43.20;18.73;;;-0.50;99.90;;;;;;4963804;28;20078;-61
2022/12/11 08:51:03;;;;;;;45.50;19.45;;;0.00;99.90;;;;;;4964482;28;20279;-58
2022/12/11 08:53:30;;;;;;;42.85;18.70;;;-0.40;99.90;;;;;;4963708;28;20549;-59
2022/12/11 08:56:11;;;;;;;46.45;18.58;;;-0.10;99.90;;;;;;4964914;28;20051;-57
2022/12/11 08:58:37;;;;;;;42.05;17.05;;;-0.30;99.90;;;;;;4963720;28;20098;-58
2022/12/11 09:01:23;;;;;;;42.95;17.85;;;-0.20;99.90;;;;;;4962985;28;20532;-58
2022/12/11 09:03:51;;;;;;;42.47;19.17;;;0.10;99.90;;;;;;4966913;28;20042;-58
2022/12/11 09:06:19;;;;;;;43.08;18.05;;;0.10;99.90;;;;;;4973047;28;20131;-58
2022/12/11 09:08:46;;;;;;;44.92;18.63;;;-0.20;99.90;;;;;;4979052;28;20502;-58
2022/12/11 09:11:16;;;;;;;46.60;19.35;;;0.20;99.90;;;;;;4964533;28;20126;-58
2022/12/11 09:13:42;;;;;;;45.03;19.40;;;0.30;99.90;;;;;;4964836;28;20034;-58
2022/12/11 09:16:11;;;;;;;43.45;17.80;;;-0.10;99.90;;;;;;4962291;28;20145;-57
2022/12/11 09:18:38;;;;;;;48.42;19.50;;;0.00;99.90;;;;;;4963700;28;20046;-58
2022/12/11 09:21:06;;;;;;;50.42;19.80;;;0.40;99.90;;;;;;4963022;28;20402;-58
2022/12/11 09:23:32;;;;;;;41.47;17.42;;;-0.10;99.90;;;;;;4963498;28;20741;-57
2022/12/11 09:25:58;;;;;;;45.63;17.92;;;-0.10;99.90;;;;;;4964068;28;20045;-58
2022/12/11 09:28:24;;;;;;;44.05;18.55;;;1.30;99.90;;;;;;4962177;28;20074;-57
2022/12/11 09:30:50;;;;;;;50.45;20.88;;;-0.10;99.90;;;;;;4963670;28;20043;-59
2022/12/11 09:33:16;;;;;;;44.95;17.98;;;0.40;99.90;;;;;;4963737;28;20049;-58
2022/12/11 09:35:42;;;;;;;45.80;20.15;;;0.70;99.90;;;;;;4963591;28;20043;-58
2022/12/11 09:38:09;;;;;;;52.42;22.05;;;-0.10;99.90;;;;;;4963850;28;20393;-58
2022/12/11 09:40:40;;;;;;;47.30;18.30;;;-0.20;99.90;;;;;;4964074;28;20050;-59
2022/12/11 09:43:35;;;;;;;41.00;16.42;;;-0.20;99.90;;;;;;4963011;28;20054;-58
2022/12/11 09:46:05;;;;;;;52.37;21.53;;;-0.40;99.90;;;;;;4962273;28;20497;-58
2022/12/11 09:48:34;;;;;;;58.15;23.10;;;-0.30;99.90;;;;;;4963802;28;20400;-58
2022/12/11 09:51:07;;;;;;;45.47;19.42;;;0.00;99.90;;;;;;4963364;28;20465;-58
2022/12/11 09:53:35;;;;;;;50.10;20.55;;;-0.20;99.90;;;;;;4963053;28;20049;-59
2022/12/11 09:56:04;;;;;;;47.90;20.40;;;-0.20;99.90;;;;;;4962653;28;20104;-59
2022/12/11 09:58:59;;;;;;;51.70;21.25;;;-0.20;99.90;;;;;;4979435;28;20047;-57
2022/12/11 10:01:41;;;;;;;50.53;22.50;;;0.60;99.90;;;;;;4963440;28;20701;-57
2022/12/11 10:04:17;;;;;;;48.78;21.77;;;-0.30;99.90;;;;;;4965221;28;20668;-57
2022/12/11 10:07:10;;;;;;;52.70;22.02;;;0.20;99.90;;;;;;4972058;28;20130;-58
2022/12/11 10:09:50;;;;;;;51.08;19.70;;;-0.30;99.90;;;;;;4963218;28;20101;-58
2022/12/11 10:12:38;;;;;;;45.25;19.02;;;-0.20;99.90;;;;;;4966049;28;20560;-59
2022/12/11 10:15:04;;;;;;;48.22;21.10;;;-0.10;99.90;;;;;;4966234;28;20058;-58
2022/12/11 10:17:32;;;;;;;48.13;19.50;;;-0.20;99.90;;;;;;4967866;28;20050;-57
2022/12/11 10:20:06;;;;;;;45.90;20.83;;;0.00;99.90;;;;;;4966101;28;20055;-58
2022/12/11 10:22:32;;;;;;;48.20;19.10;;;-0.10;99.90;;;;;;4966729;28;20464;-58
2022/12/11 10:25:03;;;;;;;48.63;18.17;;;0.40;99.90;;;;;;4967062;28;20050;-57
2022/12/11 10:27:31;;;;;;;46.85;20.38;;;-0.20;99.90;;;;;;4967042;28;20050;-58
2022/12/11 10:30:15;;;;;;;55.35;21.45;;;0.00;99.90;;;;;;4966567;28;20099;-58
2022/12/11 10:33:11;;;;;;;46.50;19.98;;;-0.20;99.90;;;;;;4982327;28;20050;-58
2022/12/11 10:35:55;;;;;;;41.40;16.83;;;-0.10;99.90;;;;;;4967273;28;20073;-59
2022/12/11 10:38:27;;;;;;;46.65;20.15;;;0.30;99.90;;;;;;4966627;28;20453;-57
2022/12/11 10:41:12;;;;;;;49.35;20.20;;;-0.20;99.90;;;;;;4966853;28;20039;-59
2022/12/11 10:43:44;;;;;;;55.23;23.67;;;-0.20;99.90;;;;;;4981723;28;20055;-59
2022/12/11 10:46:23;;;;;;;43.50;18.65;;;0.00;99.90;;;;;;4965199;28;20050;-57
2022/12/11 10:48:55;;;;;;;44.95;16.63;;;0.10;99.90;;;;;;4965628;28;20533;-59
2022/12/11 10:51:23;;;;;;;45.00;19.98;;;0.20;99.90;;;;;;4966853;28;20038;-58
2022/12/11 10:53:51;;;;;;;45.72;20.85;;;0.30;99.90;;;;;;4966125;28;20062;-57
2022/12/11 10:56:28;;;;;;;48.92;21.42;;;0.10;99.90;;;;;;4966458;28;20082;-58
2022/12/11 10:58:56;;;;;;;42.55;18.58;;;-0.20;99.90;;;;;;4967286;28;20085;-58
2022/12/11 11:01:27;;;;;;;47.70;21.88;;;0.00;99.90;;;;;;4965879;28;20531;-57
2022/12/11 11:04:02;;;;;;;47.38;20.35;;;0.20;99.90;;;;;;4969210;28;20039;-59
2022/12/11 11:06:27;;;;;;;47.88;21.15;;;0.20;99.90;;;;;;4975389;28;20485;-60
2022/12/11 11:08:57;;;;;;;45.25;18.48;;;0.00;99.90;;;;;;4981293;28;20081;-58
2022/12/11 11:11:37;;;;;;;43.70;17.83;;;-0.20;99.90;;;;;;4966455;28;20705;-58
2022/12/11 11:14:24;;;;;;;46.13;19.77;;;0.10;99.90;;;;;;4965856;28;20046;-57
2022/12/11 11:16:54;;;;;;;33.05;13.68;;;-0.10;99.90;;;;;;4966420;28;20438;-58
2022/12/11 11:19:30;;;;;;;33.58;14.38;;;-0.20;99.90;;;;;;4966825;28;20531;-57
2022/12/11 11:22:00;;;;;;;41.85;18.52;;;0.20;99.90;;;;;;4966332;28;20129;-61
2022/12/11 11:24:30;;;;;;;36.35;15.07;;;0.40;99.90;;;;;;4966826;28;20046;-57
2022/12/11 11:26:56;;;;;;;45.65;20.83;;;-0.20;99.90;;;;;;4966127;28;20039;-57
2022/12/11 11:29:30;;;;;;;46.97;20.10;;;-0.10;99.90;;;;;;4948293;28;20934;-59
2022/12/11 11:32:11;;;;;;;40.93;18.57;;;0.20;99.90;;;;;;4966170;28;20043;-58
2022/12/11 11:34:37;;;;;;;45.53;17.85;;;0.50;99.90;;;;;;4965845;28;20066;-59
2022/12/11 11:37:04;;;;;;;44.35;19.70;;;0.20;99.90;;;;;;4966187;28;20662;-57
2022/12/11 11:39:36;;;;;;;40.30;20.02;;;0.50;99.90;;;;;;4966262;28;20125;-58
2022/12/11 11:42:17;;;;;;;39.85;17.60;;;0.50;99.90;;;;;;4964721;28;20081;-57
2022/12/11 11:44:49;;;;;;;41.63;18.08;;;0.10;99.90;;;;;;4965321;28;20404;-58
2022/12/11 11:47:25;;;;;;;37.05;16.13;;;0.30;99.90;;;;;;4965763;28;20047;-57
2022/12/11 11:50:06;;;;;;;36.30;13.95;;;0.10;99.90;;;;;;4966353;28;20054;-59
2022/12/11 11:52:49;;;;;;;29.25;12.32;;;-0.10;99.90;;;;;;4969377;28;20034;-57
2022/12/11 11:55:38;;;;;;;29.92;15.02;;;0.10;99.90;;;;;;4982471;28;20088;-59
2022/12/11 11:58:23;;;;;;;41.47;18.40;;;0.60;99.90;;;;;;4983336;28;20405;-60
2022/12/11 12:00:52;;;;;;;42.13;19.42;;;0.10;99.90;;;;;;4983944;28;20046;-59
2022/12/11 12:03:20;;;;;;;37.53;16.17;;;0.40;99.90;;;;;;4984226;28;20086;-58
2022/12/11 12:06:18;;;;;;;32.80;14.57;;;0.00;99.90;;;;;;4982011;28;20054;-59
2022/12/11 12:09:07;;;;;;;41.33;17.80;;;0.20;99.90;;;;;;4983373;28;20117;-58
2022/12/11 12:12:07;;;;;;;44.85;20.35;;;0.30;99.90;;;;;;4982242;28;20478;-57
2022/12/11 12:14:57;;;;;;;45.28;22.08;;;-0.10;99.90;;;;;;4981549;28;20240;-59
2022/12/11 12:17:26;;;;;;;44.28;20.02;;;0.00;99.90;;;;;;4984264;28;20050;-58
2022/12/11 12:20:17;;;;;;;41.65;20.23;;;-0.10;99.90;;;;;;4976659;28;20452;-57
2022/12/11 12:23:15;;;;;;;40.10;18.05;;;-0.50;99.90;;;;;;4978993;28;20073;-57
2022/12/11 12:26:32;;;;;;;45.65;20.98;;;0.30;99.90;;;;;;4974642;28;20050;-58
2022/12/11 12:29:38;;;;;;;42.95;19.48;;;0.30;99.90;;;;;;4973069;28;20298;-58
2022/12/11 12:32:41;;;;;;;44.40;21.23;;;0.30;99.90;;;;;;4972411;28;20123;-59
2022/12/11 12:35:34;;;;;;;41.08;18.52;;;0.30;99.90;;;;;;4969182;28;20034;-59
2022/12/11 12:38:22;;;;;;;49.90;21.48;;;-0.10;99.90;;;;;;4982649;28;20054;-57
2022/12/11 12:41:33;;;;;;;44.75;21.38;;;0.10;99.90;;;;;;4982696;28;20092;-58
2022/12/11 12:44:16;;;;;;;45.72;21.52;;;0.00;99.90;;;;;;4965185;28;20182;-58
2022/12/11 12:47:12;;;;;;;40.55;20.08;;;0.20;99.90;;;;;;4964838;28;20054;-58
2022/12/11 12:49:47;;;;;;;41.83;20.17;;;-0.10;99.90;;;;;;4966446;28;20058;-58
2022/12/11 12:52:34;;;;;;;45.17;21.52;;;0.20;99.90;;;;;;4977309;28;20085;-60
2022/12/11 12:55:12;;;;;;;49.80;23.33;;;0.20;99.90;;;;;;4981624;28;20111;-59
2022/12/11 12:57:40;;;;;;;46.67;22.45;;;-0.10;99.90;;;;;;4981712;28;20077;-57
2022/12/11 13:00:07;;;;;;;47.30;19.83;;;0.30;99.90;;;;;;4980177;28;20133;-58